createdAt,value
2022-11-04T00:02:09.780Z,11.60
2022-11-04T00:04:42.321Z,11.60
2022-11-04T00:07:32.626Z,11.50
2022-11-04T00:10:05.937Z,11.50
2022-11-04T00:12:37.825Z,11.50
2022-11-04T00:15:29.402Z,11.50
2022-11-04T00:20:53.780Z,11.50
2022-11-04T00:23:44.089Z,11.50
2022-11-04T00:26:35.309Z,11.50
2022-11-04T00:29:07.630Z,11.50
2022-11-04T00:34:31.111Z,11.40
2022-11-04T00:37:03.982Z,11.50
2022-11-04T00:39:35.904Z,11.40
2022-11-04T00:42:08.676Z,11.40
2022-11-04T00:44:40.994Z,11.40
2022-11-04T00:47:13.400Z,11.40
2022-11-04T00:49:45.278Z,11.30
2022-11-04T00:54:50.950Z,11.30
2022-11-04T00:57:23.237Z,11.30
2022-11-04T00:59:55.585Z,11.30
2022-11-04T01:02:27.630Z,11.30
2022-11-04T01:05:00.419Z,11.30
2022-11-04T01:10:06.662Z,11.20
2022-11-04T01:12:38.973Z,11.20
2022-11-04T01:15:12.300Z,11.20
2022-11-04T01:17:45.119Z,11.20
2022-11-04T01:20:17.432Z,11.20
2022-11-04T01:22:50.100Z,11.20
2022-11-04T01:25:21.963Z,11.20
2022-11-04T01:27:56.370Z,11.20
2022-11-04T01:30:28.242Z,11.20
2022-11-04T01:35:33.325Z,11.20
2022-11-04T01:38:06.396Z,11.20
2022-11-04T01:40:40.363Z,11.10
2022-11-04T01:43:19.858Z,11.10
2022-11-04T01:46:00.092Z,11.10
2022-11-04T01:48:35.002Z,11.20
2022-11-04T01:51:07.397Z,11.10
2022-11-04T01:53:43.892Z,11.10
2022-11-04T01:56:16.861Z,11.10
2022-11-04T01:58:54.918Z,11.10
2022-11-04T02:01:26.956Z,11.10
2022-11-04T02:04:21.335Z,11.10
2022-11-04T02:07:10.148Z,11.00
2022-11-04T02:09:43.796Z,11.00
2022-11-04T02:12:34.923Z,11.00
2022-11-04T02:15:07.485Z,11.00
2022-11-04T02:18:21.934Z,10.90
2022-11-04T02:21:29.204Z,11.00
2022-11-04T02:24:04.948Z,11.00
2022-11-04T02:26:53.923Z,11.00
2022-11-04T02:30:00.798Z,11.00
2022-11-04T02:33:13.358Z,11.00
2022-11-04T02:36:41.992Z,11.00
2022-11-04T02:39:34.538Z,10.90
2022-11-04T02:42:41.471Z,10.90
2022-11-04T02:45:32.640Z,11.10
2022-11-04T02:48:32.455Z,11.00
2022-11-04T02:51:15.257Z,10.40
2022-11-04T02:54:03.275Z,11.00
2022-11-04T02:56:41.949Z,10.90
2022-11-04T02:59:43.095Z,10.90
2022-11-04T03:02:38.757Z,10.90
2022-11-04T03:05:16.342Z,10.90
2022-11-04T03:07:52.741Z,10.90
2022-11-04T03:10:44.743Z,10.90
2022-11-04T03:13:46.556Z,10.90
2022-11-04T03:16:25.495Z,10.90
2022-11-04T03:19:47.031Z,10.90
2022-11-04T03:22:26.406Z,10.90
2022-11-04T03:24:59.308Z,10.90
2022-11-04T03:28:19.368Z,10.80
2022-11-04T03:30:57.403Z,10.80
2022-11-04T03:36:42.872Z,10.70
2022-11-04T03:39:14.813Z,10.70
2022-11-04T03:41:54.343Z,10.70
2022-11-04T03:44:27.564Z,10.70
2022-11-04T03:47:00.267Z,10.70
2022-11-04T03:49:32.424Z,10.60
2022-11-04T03:52:05.334Z,10.70
2022-11-04T03:54:38.050Z,10.80
2022-11-04T03:57:54.384Z,10.70
2022-11-04T04:00:35.611Z,10.70
2022-11-04T04:03:20.607Z,10.70
2022-11-04T04:06:06.126Z,10.70
2022-11-04T04:08:50.287Z,10.70
2022-11-04T04:11:41.557Z,10.70
2022-11-04T04:14:41.920Z,10.70
2022-11-04T04:17:32.236Z,10.70
2022-11-04T04:20:27.984Z,10.70
2022-11-04T04:23:27.316Z,10.60
2022-11-04T04:26:26.557Z,10.60
2022-11-04T04:29:02.646Z,10.70
2022-11-04T04:31:50.299Z,10.70
2022-11-04T04:34:30.461Z,10.70
2022-11-04T04:37:06.363Z,10.60
2022-11-04T04:40:12.080Z,10.60
2022-11-04T04:43:03.349Z,10.60
2022-11-04T04:45:38.246Z,10.60
2022-11-04T04:48:14.133Z,10.70
2022-11-04T04:50:57.225Z,12.70
2022-11-04T04:53:30.010Z,10.60
2022-11-04T04:56:01.987Z,10.60
2022-11-04T05:01:09.101Z,10.60
2022-11-04T05:03:45.122Z,10.60
2022-11-04T05:06:17.360Z,10.60
2022-11-04T05:08:50.111Z,10.60
2022-11-04T05:11:24.665Z,10.60
2022-11-04T05:19:11.870Z,10.60
2022-11-04T05:21:43.765Z,10.70
2022-11-04T05:24:16.699Z,10.60
2022-11-04T05:26:48.659Z,10.60
2022-11-04T05:29:21.909Z,10.60
2022-11-04T05:31:53.825Z,10.60
2022-11-04T05:34:26.700Z,10.60
2022-11-04T05:37:00.285Z,10.60
2022-11-04T05:39:32.180Z,10.60
2022-11-04T05:42:04.924Z,10.70
2022-11-04T05:44:36.838Z,10.60
2022-11-04T05:47:10.107Z,10.50
2022-11-04T05:49:42.012Z,10.50
2022-11-04T05:52:14.737Z,10.60
2022-11-04T05:54:46.616Z,10.60
2022-11-04T05:57:19.394Z,10.50
2022-11-04T05:59:52.012Z,10.40
2022-11-04T06:02:24.434Z,10.40
2022-11-04T06:04:57.093Z,10.30
2022-11-04T06:07:29.531Z,10.50
2022-11-04T06:10:01.756Z,10.40
2022-11-04T06:12:35.160Z,10.60
2022-11-04T06:15:08.451Z,10.60
2022-11-04T06:20:14.303Z,10.60
2022-11-04T06:22:46.669Z,10.70
2022-11-04T06:25:18.611Z,10.70
2022-11-04T06:30:23.727Z,10.70
2022-11-04T06:32:56.547Z,10.70
2022-11-04T06:35:28.892Z,10.60
2022-11-04T06:38:01.720Z,11.10
2022-11-04T06:40:34.651Z,12.00
2022-11-04T06:50:45.473Z,10.20
2022-11-04T06:53:18.264Z,10.20
2022-11-04T06:56:04.315Z,10.20
2022-11-04T06:58:37.146Z,10.10
2022-11-04T07:01:15.918Z,10.20
2022-11-04T07:03:53.511Z,10.20
2022-11-04T07:06:27.121Z,10.20
2022-11-04T07:09:02.349Z,10.30
2022-11-04T07:11:34.375Z,10.40
2022-11-04T07:14:07.352Z,10.40
2022-11-04T07:19:12.498Z,10.20
2022-11-04T07:21:44.424Z,10.20
2022-11-04T07:24:17.248Z,10.20
2022-11-04T07:26:49.307Z,10.10
2022-11-04T07:29:22.238Z,10.20
2022-11-04T07:31:54.573Z,10.30
2022-11-04T07:34:26.954Z,10.20
2022-11-04T07:36:58.939Z,10.10
2022-11-04T07:42:08.604Z,10.30
2022-11-04T07:44:41.436Z,10.40
2022-11-04T07:49:46.882Z,10.50
2022-11-04T07:52:19.694Z,10.50
2022-11-04T07:54:51.667Z,10.50
2022-11-04T07:57:24.539Z,10.80
2022-11-04T07:59:56.938Z,11.20
2022-11-04T08:02:34.907Z,10.90
2022-11-04T08:05:08.405Z,10.90
2022-11-04T08:07:41.569Z,11.00
2022-11-04T08:12:46.673Z,11.30
2022-11-04T08:15:19.052Z,11.40
2022-11-04T08:20:24.856Z,11.70
2022-11-04T08:22:57.641Z,11.70
2022-11-04T08:25:29.622Z,11.60
2022-11-04T08:28:02.419Z,11.40
2022-11-04T08:30:34.379Z,11.50
2022-11-04T08:33:07.394Z,11.50
2022-11-04T08:35:41.841Z,11.50
2022-11-04T08:38:14.196Z,11.60
2022-11-04T08:40:46.410Z,11.60
2022-11-04T08:45:53.050Z,11.60
2022-11-04T08:51:02.110Z,11.70
2022-11-04T08:56:11.912Z,12.00
2022-11-04T08:58:44.801Z,12.00
2022-11-04T09:01:18.115Z,12.30
2022-11-04T09:03:51.519Z,12.60
2022-11-04T09:06:36.850Z,12.80
2022-11-04T09:09:13.357Z,12.90
2022-11-04T09:11:46.846Z,12.50
2022-11-04T09:14:20.729Z,12.50
2022-11-04T09:19:26.585Z,12.60
2022-11-04T09:24:32.471Z,12.50
2022-11-04T09:27:06.519Z,12.70
2022-11-04T09:29:39.023Z,12.70
2022-11-04T09:34:44.125Z,12.80
2022-11-04T09:37:16.129Z,12.40
2022-11-04T09:42:36.867Z,12.90
2022-11-04T09:45:23.164Z,12.90
2022-11-04T09:48:08.139Z,11.70
2022-11-04T09:50:52.232Z,12.80
2022-11-04T09:53:39.884Z,13.60
2022-11-04T09:56:21.475Z,13.50
2022-11-04T10:02:00.005Z,13.20
2022-11-04T10:04:45.064Z,13.40
2022-11-04T10:07:34.984Z,13.60
2022-11-04T10:10:25.675Z,13.70
2022-11-04T10:13:09.413Z,13.60
2022-11-04T10:15:50.858Z,13.70
2022-11-04T10:18:54.791Z,13.60
2022-11-04T10:21:48.015Z,13.60
2022-11-04T10:24:30.711Z,13.60
2022-11-04T10:27:17.884Z,13.50
2022-11-04T10:30:02.550Z,13.40
2022-11-04T10:32:53.160Z,13.40
2022-11-04T10:35:42.849Z,13.30
2022-11-04T10:38:33.923Z,13.40
2022-11-04T10:41:27.317Z,13.20
2022-11-04T10:44:13.509Z,13.10
2022-11-04T10:47:23.769Z,12.90
2022-11-04T10:50:28.989Z,12.70
2022-11-04T10:53:12.538Z,12.60
2022-11-04T10:55:55.248Z,12.50
2022-11-04T10:58:35.478Z,12.50
2022-11-04T11:01:52.423Z,12.50
2022-11-04T11:04:34.340Z,12.60
2022-11-04T11:07:10.576Z,12.80
2022-11-04T11:09:54.060Z,12.80
2022-11-04T11:12:51.206Z,13.00
2022-11-04T11:15:39.398Z,13.10
2022-11-04T11:18:22.822Z,13.10
2022-11-04T11:21:12.840Z,13.10
2022-11-04T11:23:48.408Z,13.00
2022-11-04T11:26:31.245Z,12.90
2022-11-04T11:29:12.066Z,13.00
2022-11-04T11:31:44.581Z,13.20
2022-11-04T11:34:26.949Z,13.30
2022-11-04T11:37:03.628Z,13.30
2022-11-04T11:42:17.941Z,12.90
2022-11-04T11:47:28.133Z,13.20
2022-11-04T11:50:21.340Z,13.20
2022-11-04T11:52:54.509Z,13.20
2022-11-04T11:55:36.938Z,13.40
2022-11-04T12:01:46.933Z,13.40
2022-11-04T12:11:25.939Z,13.40
2022-11-04T12:14:06.159Z,13.60
2022-11-04T12:16:51.724Z,13.60
2022-11-04T12:22:51.694Z,13.50
2022-11-04T12:25:40.267Z,13.50
2022-11-04T12:28:45.074Z,13.50
2022-11-04T12:31:38.362Z,13.50
2022-11-04T12:34:50.694Z,13.30
2022-11-04T12:37:46.000Z,13.40
2022-11-04T12:40:24.858Z,13.40
2022-11-04T12:43:20.565Z,13.70
2022-11-04T12:46:26.371Z,13.80
2022-11-04T12:49:07.532Z,13.90
2022-11-04T12:52:12.384Z,14.10
2022-11-04T12:55:06.187Z,14.00
2022-11-04T12:58:15.300Z,13.90
2022-11-04T13:00:59.305Z,14.00
2022-11-04T13:04:02.146Z,13.90
2022-11-04T13:06:46.729Z,14.10
2022-11-04T13:09:49.727Z,14.10
2022-11-04T13:12:32.669Z,14.30
2022-11-04T13:15:23.270Z,13.80
2022-11-04T13:18:06.863Z,13.80
2022-11-04T13:21:17.012Z,13.60
2022-11-04T13:24:06.545Z,13.80
2022-11-04T13:26:39.314Z,13.90
2022-11-04T13:29:22.057Z,13.90
2022-11-04T13:32:15.106Z,13.60
2022-11-04T13:35:17.804Z,13.80
2022-11-04T13:38:13.591Z,14.00
2022-11-04T13:41:22.592Z,14.00
2022-11-04T13:44:02.576Z,13.90
2022-11-04T13:46:35.193Z,13.70
2022-11-04T13:49:30.613Z,13.50
2022-11-04T13:52:10.756Z,13.60
2022-11-04T13:54:53.375Z,13.70
2022-11-04T13:57:31.274Z,13.60
2022-11-04T14:00:15.865Z,13.60
2022-11-04T14:02:51.449Z,13.40
2022-11-04T14:05:30.443Z,13.40
2022-11-04T14:10:50.409Z,13.60
2022-11-04T14:13:31.573Z,13.50
2022-11-04T14:16:13.638Z,13.60
2022-11-04T14:18:48.265Z,13.60
2022-11-04T14:21:29.809Z,13.60
2022-11-04T14:24:16.365Z,13.70
2022-11-04T14:26:51.962Z,13.70
2022-11-04T14:29:28.358Z,13.70
2022-11-04T14:32:00.925Z,13.60
2022-11-04T14:34:38.105Z,13.50
2022-11-04T14:37:25.303Z,13.60
2022-11-04T14:40:01.627Z,13.50
2022-11-04T14:42:52.660Z,13.30
2022-11-04T14:45:34.103Z,13.10
2022-11-04T14:48:20.944Z,12.90
2022-11-04T14:50:56.477Z,12.90
2022-11-04T14:53:37.241Z,12.80
2022-11-04T14:56:23.908Z,12.80
2022-11-04T14:59:07.686Z,12.70
2022-11-04T15:01:41.049Z,12.70
2022-11-04T15:04:26.706Z,12.60
2022-11-04T15:07:56.299Z,12.80
2022-11-04T15:10:29.404Z,12.80
2022-11-04T15:13:02.157Z,12.60
2022-11-04T15:15:39.731Z,12.60
2022-11-04T15:18:25.567Z,12.40
2022-11-04T15:21:04.751Z,12.30
2022-11-04T15:23:56.111Z,12.20
2022-11-04T15:26:32.973Z,12.20
2022-11-04T15:29:11.872Z,12.20
2022-11-04T15:32:05.702Z,12.10
2022-11-04T15:37:12.813Z,12.00
2022-11-04T15:39:49.137Z,12.00
2022-11-04T15:42:39.739Z,12.00
2022-11-04T15:45:36.926Z,12.00
2022-11-04T15:48:38.208Z,11.90
2022-11-04T15:51:36.272Z,11.90
2022-11-04T15:54:23.692Z,11.90
2022-11-04T15:57:00.956Z,11.70
2022-11-04T15:59:35.776Z,11.80
2022-11-04T16:02:46.962Z,11.70
2022-11-04T16:05:39.901Z,11.70
2022-11-04T16:08:28.090Z,11.50
2022-11-04T16:11:19.504Z,11.50
2022-11-04T16:16:27.582Z,11.50
2022-11-04T16:19:00.366Z,11.40
2022-11-04T16:21:36.721Z,11.40
2022-11-04T16:24:26.681Z,11.40
2022-11-04T16:27:00.032Z,11.30
2022-11-04T16:29:36.473Z,11.20
2022-11-04T16:32:25.029Z,11.20
2022-11-04T16:38:01.625Z,11.20
2022-11-04T16:43:07.137Z,11.20
2022-11-04T16:48:19.483Z,11.10
2022-11-04T16:50:51.501Z,11.10
2022-11-04T16:53:24.244Z,11.10
2022-11-04T16:55:58.205Z,11.10
2022-11-04T17:06:14.490Z,11.00
2022-11-04T17:13:52.235Z,10.90
2022-11-04T17:24:06.412Z,10.80
2022-11-04T17:26:38.717Z,10.70
2022-11-04T17:29:16.835Z,10.60
2022-11-04T17:34:26.195Z,10.50
2022-11-04T17:36:58.123Z,10.50
2022-11-04T17:39:31.039Z,10.60
2022-11-04T17:47:27.543Z,10.50
2022-11-04T17:49:59.851Z,10.40
2022-11-04T17:52:31.774Z,10.40
2022-11-04T17:55:06.255Z,10.50
2022-11-04T18:00:14.566Z,10.40
2022-11-04T18:13:00.631Z,10.40
2022-11-04T18:20:38.119Z,10.30
2022-11-04T18:30:56.495Z,10.30
2022-11-04T18:33:29.204Z,10.40
2022-11-04T18:36:05.747Z,10.30
2022-11-04T18:38:38.444Z,10.30
2022-11-04T18:41:10.894Z,10.30
2022-11-04T18:46:17.535Z,10.30
2022-11-04T18:48:51.023Z,10.30
2022-11-04T18:51:24.417Z,10.20
2022-11-04T18:53:56.935Z,10.30
2022-11-04T18:56:29.306Z,10.30
2022-11-04T18:59:01.846Z,10.30
2022-11-04T19:01:35.244Z,10.20
2022-11-04T19:04:08.554Z,10.20
2022-11-04T19:06:44.301Z,10.20
2022-11-04T19:12:29.225Z,10.20
2022-11-04T19:15:01.323Z,10.40
2022-11-04T19:17:37.212Z,10.50
2022-11-04T19:20:12.694Z,10.30
2022-11-04T19:22:45.828Z,10.30
2022-11-04T19:25:18.549Z,10.10
2022-11-04T19:28:26.791Z,10.00
2022-11-04T19:30:43.498Z,10.10
2022-11-04T19:35:52.376Z,10.10
2022-11-04T19:38:25.780Z,10.10
2022-11-04T19:41:35.458Z,10.10
2022-11-04T19:44:12.492Z,10.10
2022-11-04T19:46:46.524Z,10.10
2022-11-04T19:49:20.475Z,10.00
2022-11-04T19:51:53.129Z,10.10
2022-11-04T19:56:58.492Z,10.10
2022-11-04T20:04:36.684Z,10.00
2022-11-04T20:07:08.611Z,10.10
2022-11-04T20:09:41.416Z,10.10
2022-11-04T20:12:31.939Z,10.10
2022-11-04T20:15:05.578Z,10.10
2022-11-04T20:17:37.673Z,10.10
2022-11-04T20:20:10.102Z,10.10
2022-11-04T20:22:42.919Z,10.00
2022-11-04T20:27:48.851Z,10.00
2022-11-04T20:30:21.659Z,10.00
2022-11-04T20:32:53.581Z,9.90
2022-11-04T20:43:05.118Z,10.10
2022-11-04T20:50:43.875Z,10.00
2022-11-04T20:53:16.316Z,10.00
2022-11-04T20:55:51.477Z,9.90
2022-11-04T20:58:23.842Z,10.00
2022-11-04T21:01:02.092Z,10.00
2022-11-04T21:03:34.377Z,9.90
2022-11-04T21:06:07.508Z,10.00
2022-11-04T21:08:39.764Z,10.00
2022-11-04T21:11:12.522Z,10.00
2022-11-04T21:13:45.345Z,10.00
2022-11-04T21:16:17.446Z,10.00
2022-11-04T21:18:50.367Z,10.90
2022-11-04T21:21:23.430Z,10.00
2022-11-04T21:24:04.273Z,9.80
2022-11-04T21:26:36.223Z,10.00
2022-11-04T21:29:14.024Z,10.00
2022-11-04T21:31:48.395Z,10.00
2022-11-04T21:34:21.149Z,10.00
2022-11-04T21:36:53.689Z,10.00
2022-11-04T21:39:26.459Z,10.00
2022-11-04T21:41:59.274Z,10.00
2022-11-04T21:44:31.628Z,9.90
2022-11-04T21:47:03.568Z,10.00
2022-11-04T21:52:08.626Z,9.90
2022-11-04T21:54:41.370Z,9.70
2022-11-04T21:57:13.658Z,9.80
2022-11-04T21:59:45.619Z,9.80
2022-11-04T22:02:18.577Z,9.70
2022-11-04T22:04:50.781Z,11.80
2022-11-04T22:07:43.500Z,9.70
2022-11-04T22:10:15.392Z,9.70
2022-11-04T22:18:16.627Z,9.70
2022-11-04T22:20:48.967Z,9.70
2022-11-04T22:23:21.710Z,9.50
2022-11-04T22:26:01.286Z,9.50
2022-11-04T22:28:33.495Z,9.60
2022-11-04T22:31:11.082Z,9.50
2022-11-04T22:33:43.920Z,9.60
2022-11-04T22:38:49.094Z,9.50
2022-11-04T22:41:31.892Z,9.80
2022-11-04T22:49:10.269Z,9.50
2022-11-04T22:54:15.823Z,9.50
2022-11-04T22:56:47.747Z,9.60
2022-11-04T22:59:20.561Z,9.60
2022-11-04T23:01:52.947Z,9.70
2022-11-04T23:04:26.007Z,9.70
2022-11-04T23:09:32.311Z,9.80
2022-11-04T23:12:23.411Z,9.70
2022-11-04T23:15:14.640Z,9.70
2022-11-04T23:18:05.393Z,9.60
2022-11-04T23:20:37.800Z,9.60
2022-11-04T23:23:28.166Z,9.70
2022-11-04T23:26:00.909Z,9.80
2022-11-04T23:28:51.344Z,9.70
2022-11-04T23:31:24.113Z,9.70
2022-11-04T23:34:14.521Z,9.70
2022-11-04T23:37:05.821Z,9.60
2022-11-04T23:39:42.761Z,9.60
2022-11-04T23:42:19.653Z,9.60
2022-11-04T23:45:13.999Z,9.60
2022-11-04T23:48:06.808Z,9.50
2022-11-04T23:50:57.441Z,9.50
2022-11-04T23:53:48.142Z,9.50
2022-11-04T23:56:39.446Z,9.50
2022-11-04T23:59:36.315Z,9.50
